createdAt,value
2022-11-07T00:01:36.011Z,99647.09
2022-11-07T00:04:03.043Z,99650.59
2022-11-07T00:06:30.178Z,99651.41
2022-11-07T00:08:59.119Z,99659.41
2022-11-07T00:11:26.071Z,99661.69
2022-11-07T00:13:53.007Z,99666.84
2022-11-07T00:16:20.024Z,99669.50
2022-11-07T00:18:46.960Z,99675.47
2022-11-07T00:21:13.998Z,99674.63
2022-11-07T00:23:42.257Z,99677.94
2022-11-07T00:26:12.697Z,99677.09
2022-11-07T00:28:42.953Z,99669.09
2022-11-07T00:31:13.207Z,99671.78
2022-11-07T00:33:41.585Z,99669.94
2022-11-07T00:36:10.760Z,99669.94
2022-11-07T00:38:37.743Z,99676.28
2022-11-07T00:41:06.458Z,99681.41
2022-11-07T00:43:34.236Z,99686.94
2022-11-07T00:46:02.958Z,99682.44
2022-11-07T00:48:30.842Z,99675.25
2022-11-07T00:51:04.256Z,99677.09
2022-11-07T00:53:31.193Z,99686.94
2022-11-07T00:56:07.495Z,99686.13
2022-11-07T00:58:35.706Z,99690.63
2022-11-07T01:01:15.278Z,99693.09
2022-11-07T01:04:01.189Z,99691.25
2022-11-07T01:06:31.210Z,99696.38
2022-11-07T01:08:58.372Z,99694.75
2022-11-07T01:11:28.330Z,99698.25
2022-11-07T01:14:00.803Z,99699.06
2022-11-07T01:16:29.945Z,99691.88
2022-11-07T01:18:57.162Z,99699.88
2022-11-07T01:21:24.118Z,99709.16
2022-11-07T01:23:51.031Z,99702.19
2022-11-07T01:26:18.499Z,99706.69
2022-11-07T01:28:45.592Z,99709.16
2022-11-07T01:31:15.253Z,99709.16
2022-11-07T01:33:42.452Z,99703.00
2022-11-07T01:36:16.174Z,99701.78
2022-11-07T01:38:48.319Z,99696.44
2022-11-07T01:41:27.307Z,99690.28
2022-11-07T01:44:08.208Z,99690.09
2022-11-07T01:46:39.801Z,99691.78
2022-11-07T01:49:29.650Z,99689.94
2022-11-07T01:52:00.470Z,99690.75
2022-11-07T01:54:36.809Z,99689.94
2022-11-07T01:57:09.524Z,99698.56
2022-11-07T01:59:38.085Z,99701.22
2022-11-07T02:02:05.687Z,99705.53
2022-11-07T02:04:33.265Z,99694.03
2022-11-07T02:07:23.597Z,99691.19
2022-11-07T02:09:53.201Z,99697.16
2022-11-07T02:12:22.994Z,99703.50
2022-11-07T02:14:50.734Z,99693.47
2022-11-07T02:17:18.739Z,99695.13
2022-11-07T02:19:55.881Z,99700.25
2022-11-07T02:22:51.849Z,99707.22
2022-11-07T02:25:20.308Z,99700.69
2022-11-07T02:27:52.236Z,99699.06
2022-11-07T02:30:25.137Z,99703.38
2022-11-07T02:32:52.110Z,99699.47
2022-11-07T02:35:39.898Z,99702.16
2022-11-07T02:38:17.483Z,99701.13
2022-11-07T02:40:51.290Z,99695.78
2022-11-07T02:43:22.659Z,99695.78
2022-11-07T02:45:50.661Z,99690.09
2022-11-07T02:48:18.062Z,99695.41
2022-11-07T02:50:45.233Z,99698.72
2022-11-07T02:53:12.611Z,99699.34
2022-11-07T02:55:39.798Z,99695.84
2022-11-07T02:58:06.812Z,99695.03
2022-11-07T03:00:33.775Z,99702.66
2022-11-07T03:03:00.727Z,99697.13
2022-11-07T03:05:28.187Z,99694.25
2022-11-07T03:07:55.256Z,99695.91
2022-11-07T03:10:22.198Z,99697.75
2022-11-07T03:12:49.170Z,99701.69
2022-11-07T03:15:16.150Z,99702.50
2022-11-07T03:17:43.111Z,99699.84
2022-11-07T03:20:12.708Z,99707.44
2022-11-07T03:22:40.059Z,99694.75
2022-11-07T03:25:08.422Z,99704.41
2022-11-07T03:27:35.340Z,99703.16
2022-11-07T03:30:02.322Z,99702.97
2022-11-07T03:32:29.330Z,99710.84
2022-11-07T03:34:56.247Z,99712.28
2022-11-07T03:37:23.172Z,99711.25
2022-11-07T03:39:50.124Z,99719.88
2022-11-07T03:42:17.060Z,99718.88
2022-11-07T03:44:44.005Z,99724.22
2022-11-07T03:47:11.002Z,99728.53
2022-11-07T03:49:37.948Z,99730.19
2022-11-07T03:52:05.332Z,99726.50
2022-11-07T03:54:32.282Z,99730.59
2022-11-07T03:56:59.312Z,99728.13
2022-11-07T03:59:26.272Z,99733.09
2022-11-07T04:01:53.296Z,99734.09
2022-11-07T04:04:20.332Z,99736.59
2022-11-07T04:06:47.277Z,99743.38
2022-11-07T04:09:14.199Z,99751.19
2022-11-07T04:11:59.765Z,99751.19
2022-11-07T04:14:45.195Z,99753.69
2022-11-07T04:17:21.458Z,99753.69
2022-11-07T04:19:57.551Z,99764.16
2022-11-07T04:22:26.251Z,99758.81
2022-11-07T04:24:53.260Z,99758.63
2022-11-07T04:27:39.181Z,99762.94
2022-11-07T04:30:28.019Z,99761.28
2022-11-07T04:32:58.348Z,99765.59
2022-11-07T04:35:29.178Z,99760.25
2022-11-07T04:37:56.092Z,99761.91
2022-11-07T04:40:23.151Z,99762.56
2022-11-07T04:42:50.656Z,99765.03
2022-11-07T04:45:18.527Z,99759.47
2022-11-07T04:47:46.195Z,99769.13
2022-11-07T04:50:16.329Z,99769.75
2022-11-07T04:52:43.598Z,99767.09
2022-11-07T04:55:19.744Z,99761.56
2022-11-07T04:57:46.815Z,99748.84
2022-11-07T05:00:14.903Z,99768.56
2022-11-07T05:02:42.073Z,99751.31
2022-11-07T05:05:09.766Z,99762.81
2022-11-07T05:07:37.117Z,99761.63
2022-11-07T05:10:09.650Z,99757.31
2022-11-07T05:12:39.002Z,99749.28
2022-11-07T05:15:07.174Z,99761.63
2022-11-07T05:17:34.100Z,99748.88
2022-11-07T05:20:01.108Z,99745.19
2022-11-07T05:22:46.354Z,99750.53
2022-11-07T05:25:13.309Z,99741.50
2022-11-07T05:27:40.256Z,99749.50
2022-11-07T05:30:08.374Z,99752.00
2022-11-07T05:32:38.060Z,99753.81
2022-11-07T05:35:06.171Z,99750.53
2022-11-07T05:37:33.107Z,99751.34
2022-11-07T05:40:00.040Z,99753.81
2022-11-07T05:42:27.373Z,99756.69
2022-11-07T05:44:54.317Z,99752.16
2022-11-07T05:47:21.276Z,99761.22
2022-11-07T05:49:48.256Z,99754.44
2022-11-07T05:52:15.225Z,99765.94
2022-11-07T05:54:42.127Z,99757.91
2022-11-07T05:57:09.075Z,99771.47
2022-11-07T05:59:36.032Z,99771.47
2022-11-07T06:02:03.222Z,99769.78
2022-11-07T06:04:30.246Z,99775.13
2022-11-07T06:06:57.183Z,99776.00
2022-11-07T06:09:24.139Z,99772.28
2022-11-07T06:11:51.049Z,99779.47
2022-11-07T06:14:18.073Z,99776.97
2022-11-07T06:16:45.049Z,99778.66
2022-11-07T06:19:11.967Z,99779.28
2022-11-07T06:21:38.921Z,99773.13
2022-11-07T06:24:06.686Z,99771.28
2022-11-07T06:26:35.733Z,99778.47
2022-11-07T06:29:02.738Z,99781.94
2022-11-07T06:31:29.671Z,99785.66
2022-11-07T06:33:56.578Z,99784.63
2022-11-07T06:36:23.493Z,99782.78
2022-11-07T06:38:53.623Z,99784.63
2022-11-07T06:41:20.617Z,99781.34
2022-11-07T06:43:49.880Z,99786.66
2022-11-07T06:46:19.174Z,99791.00
2022-11-07T06:48:46.346Z,99793.66
2022-11-07T06:51:13.351Z,99808.66
2022-11-07T06:53:40.318Z,99796.13
2022-11-07T06:56:10.080Z,99791.81
2022-11-07T06:58:37.029Z,99803.13
2022-11-07T07:01:08.172Z,99797.97
2022-11-07T07:03:35.509Z,99803.94
2022-11-07T07:06:04.688Z,99806.81
2022-11-07T07:08:32.106Z,99811.94
2022-11-07T07:11:07.584Z,99814.63
2022-11-07T07:13:34.911Z,99818.31
2022-11-07T07:16:02.558Z,99815.25
2022-11-07T07:18:30.740Z,99816.25
2022-11-07T07:21:13.403Z,99809.28
2022-11-07T07:23:40.901Z,99818.31
2022-11-07T07:26:14.062Z,99819.97
2022-11-07T07:28:41.885Z,99814.41
2022-11-07T07:31:14.622Z,99814.25
2022-11-07T07:33:42.539Z,99813.22
2022-11-07T07:36:10.277Z,99818.34
2022-11-07T07:38:37.364Z,99814.66
2022-11-07T07:41:04.910Z,99819.81
2022-11-07T07:43:32.886Z,99817.13
2022-11-07T07:46:01.805Z,99809.78
2022-11-07T07:48:28.942Z,99814.09
2022-11-07T07:50:55.996Z,99810.84
2022-11-07T07:53:23.015Z,99819.47
2022-11-07T07:55:50.257Z,99819.28
2022-11-07T07:58:17.254Z,99825.88
2022-11-07T08:00:46.793Z,99830.00
2022-11-07T08:03:14.865Z,99828.75
2022-11-07T08:05:41.989Z,99829.59
2022-11-07T08:08:09.191Z,99829.22
2022-11-07T08:10:41.927Z,99838.06
2022-11-07T08:13:09.587Z,99833.31
2022-11-07T08:15:36.488Z,99833.78
2022-11-07T08:18:06.750Z,99828.84
2022-11-07T08:20:33.702Z,99833.81
2022-11-07T08:23:11.315Z,99836.72
2022-11-07T08:25:41.648Z,99836.31
2022-11-07T08:28:08.667Z,99835.94
2022-11-07T08:30:36.177Z,99840.03
2022-11-07T08:33:04.061Z,99837.78
2022-11-07T08:35:31.727Z,99831.03
2022-11-07T08:37:59.441Z,99836.16
2022-11-07T08:40:26.848Z,99828.59
2022-11-07T08:42:59.424Z,99837.22
2022-11-07T08:45:26.452Z,99841.53
2022-11-07T08:47:58.179Z,99846.72
2022-11-07T08:50:26.549Z,99844.66
2022-11-07T08:52:57.031Z,99855.75
2022-11-07T08:55:28.386Z,99842.41
2022-11-07T08:58:00.637Z,99845.31
2022-11-07T09:00:28.342Z,99841.38
2022-11-07T09:05:42.260Z,99856.63
2022-11-07T09:08:09.205Z,99857.91
2022-11-07T09:10:36.172Z,99860.00
2022-11-07T09:13:03.089Z,99849.69
2022-11-07T09:15:30.064Z,99857.13
2022-11-07T09:18:04.540Z,99864.16
2022-11-07T09:20:33.536Z,99861.91
2022-11-07T09:23:00.722Z,99855.13
2022-11-07T09:25:28.076Z,99848.72
2022-11-07T09:27:55.951Z,99860.06
2022-11-07T09:30:22.970Z,99855.94
2022-11-07T09:32:49.970Z,99858.44
2022-11-07T09:35:17.139Z,99859.47
2022-11-07T09:37:44.171Z,99860.72
2022-11-07T09:40:29.267Z,99857.22
2022-11-07T09:43:20.692Z,99856.81
2022-11-07T09:46:32.308Z,99862.59
2022-11-07T09:49:23.875Z,99859.72
2022-11-07T09:52:03.558Z,99865.88
2022-11-07T09:54:36.579Z,99862.19
2022-11-07T09:57:09.892Z,99863.00
2022-11-07T09:59:53.024Z,99865.50
2022-11-07T10:02:25.687Z,99870.44
2022-11-07T10:04:58.593Z,99863.00
2022-11-07T10:07:30.600Z,99855.63
2022-11-07T10:10:12.358Z,99856.84
2022-11-07T10:12:56.345Z,99861.81
2022-11-07T10:16:03.461Z,99858.69
2022-11-07T10:19:19.998Z,99866.53
2022-11-07T10:22:30.393Z,99861.38
2022-11-07T10:25:18.333Z,99865.09
2022-11-07T10:28:07.662Z,99862.41
2022-11-07T10:30:35.391Z,99862.00
2022-11-07T10:33:26.907Z,99859.72
2022-11-07T10:36:02.402Z,99864.28
2022-11-07T10:38:33.688Z,99867.56
2022-11-07T10:41:00.694Z,99863.03
2022-11-07T10:43:39.299Z,99868.19
2022-11-07T10:46:27.336Z,99871.06
2022-11-07T10:48:57.919Z,99881.59
2022-11-07T10:51:38.375Z,99875.41
2022-11-07T10:54:11.372Z,99870.06
2022-11-07T10:56:53.998Z,99871.69
2022-11-07T10:59:32.958Z,99869.63
2022-11-07T11:02:15.805Z,99884.06
2022-11-07T11:04:51.167Z,99887.34
2022-11-07T11:07:22.989Z,99877.88
2022-11-07T11:09:57.563Z,99888.38
2022-11-07T11:12:37.552Z,99877.06
2022-11-07T11:15:17.819Z,99865.09
2022-11-07T11:17:45.922Z,99870.66
2022-11-07T11:20:53.929Z,99875.81
2022-11-07T11:23:30.999Z,99870.88
2022-11-07T11:26:07.767Z,99865.28
2022-11-07T11:28:45.386Z,99865.91
2022-11-07T11:31:32.223Z,99865.50
2022-11-07T11:34:17.170Z,99861.34
2022-11-07T11:36:55.493Z,99856.41
2022-11-07T11:39:35.446Z,99852.69
2022-11-07T11:42:04.838Z,99853.91
2022-11-07T11:44:42.960Z,99847.09
2022-11-07T11:47:34.762Z,99855.56
2022-11-07T11:50:11.670Z,99847.09
2022-11-07T11:52:39.215Z,99856.38
2022-11-07T11:55:15.545Z,99847.91
2022-11-07T11:58:11.684Z,99832.03
2022-11-07T12:00:55.841Z,99830.38
2022-11-07T12:04:23.738Z,99834.66
2022-11-07T12:06:59.238Z,99848.06
2022-11-07T12:10:16.056Z,99826.56
2022-11-07T12:13:16.938Z,99827.94
2022-11-07T12:15:48.424Z,99830.22
2022-11-07T12:19:00.062Z,99836.38
2022-11-07T12:21:42.505Z,99826.44
2022-11-07T12:24:36.721Z,99838.78
2022-11-07T12:27:37.423Z,99833.78
2022-11-07T12:30:22.350Z,99820.53
2022-11-07T12:33:17.170Z,99823.41
2022-11-07T12:35:55.253Z,99827.09
2022-11-07T12:39:03.520Z,99821.03
2022-11-07T12:41:47.200Z,99824.13
2022-11-07T12:44:38.234Z,99822.88
2022-11-07T12:47:56.370Z,99815.44
2022-11-07T12:50:30.982Z,99816.63
2022-11-07T12:53:36.806Z,99813.34
2022-11-07T12:56:13.985Z,99803.81
2022-11-07T12:58:44.407Z,99802.78
2022-11-07T13:01:19.929Z,99803.38
2022-11-07T13:04:16.172Z,99812.66
2022-11-07T13:06:48.746Z,99799.63
2022-11-07T13:09:38.068Z,99805.00
2022-11-07T13:12:28.405Z,99795.31
2022-11-07T13:14:56.993Z,99795.91
2022-11-07T13:17:30.829Z,99789.72
2022-11-07T13:20:05.476Z,99789.28
2022-11-07T13:22:36.725Z,99793.38
2022-11-07T13:25:17.068Z,99792.78
2022-11-07T13:28:00.192Z,99795.03
2022-11-07T13:30:30.003Z,99797.94
2022-11-07T13:32:58.950Z,99796.06
2022-11-07T13:35:29.731Z,99799.56
2022-11-07T13:38:23.892Z,99800.41
2022-11-07T13:41:03.991Z,99795.47
2022-11-07T13:43:59.160Z,99802.31
2022-11-07T13:46:52.170Z,99802.53
2022-11-07T13:49:45.103Z,99801.72
2022-11-07T13:52:42.889Z,99805.47
2022-11-07T13:55:18.647Z,99801.31
2022-11-07T13:57:57.937Z,99797.22
2022-11-07T14:00:25.554Z,99799.31
2022-11-07T14:02:58.685Z,99803.88
2022-11-07T14:05:37.161Z,99804.88
2022-11-07T14:08:31.379Z,99809.06
2022-11-07T14:10:59.264Z,99810.94
2022-11-07T14:13:40.974Z,99807.03
2022-11-07T14:16:22.480Z,99804.09
2022-11-07T14:18:57.849Z,99821.03
2022-11-07T14:21:32.633Z,99817.59
2022-11-07T14:23:59.717Z,99819.25
2022-11-07T14:26:32.944Z,99813.06
2022-11-07T14:29:03.726Z,99815.94
2022-11-07T14:31:37.441Z,99815.94
2022-11-07T14:34:13.717Z,99817.22
2022-11-07T14:37:07.769Z,99808.56
2022-11-07T14:39:34.759Z,99807.75
2022-11-07T14:42:03.857Z,99812.25
2022-11-07T14:44:54.380Z,99811.44
2022-11-07T14:47:32.982Z,99807.34
2022-11-07T14:50:01.921Z,99806.94
2022-11-07T14:52:41.651Z,99805.91
2022-11-07T14:55:33.885Z,99806.94
2022-11-07T14:58:03.881Z,99809.00
2022-11-07T15:00:33.145Z,99813.56
2022-11-07T15:03:01.010Z,99806.78
2022-11-07T15:05:43.980Z,99809.47
2022-11-07T15:08:36.852Z,99807.81
2022-11-07T15:11:14.266Z,99804.50
2022-11-07T15:13:41.832Z,99801.81
2022-11-07T15:16:18.368Z,99799.59
2022-11-07T15:18:56.549Z,99801.22
2022-11-07T15:21:31.104Z,99791.53
2022-11-07T15:24:00.585Z,99801.44
2022-11-07T15:26:34.699Z,99796.28
2022-11-07T15:29:15.432Z,99794.22
2022-11-07T15:31:49.550Z,99796.50
2022-11-07T15:34:33.764Z,99793.59
2022-11-07T15:37:17.457Z,99793.00
2022-11-07T15:39:44.856Z,99787.84
2022-11-07T15:42:12.030Z,99791.34
2022-11-07T15:44:38.986Z,99799.63
2022-11-07T15:47:06.847Z,99797.75
2022-11-07T15:49:34.678Z,99809.53
2022-11-07T15:52:01.944Z,99810.59
2022-11-07T15:54:28.881Z,99813.25
2022-11-07T15:57:01.492Z,99813.25
2022-11-07T15:59:33.317Z,99815.31
2022-11-07T16:02:01.253Z,99811.59
2022-11-07T16:04:28.236Z,99815.53
2022-11-07T16:06:55.397Z,99808.31
2022-11-07T16:09:22.689Z,99805.84
2022-11-07T16:11:49.671Z,99808.75
2022-11-07T16:17:11.889Z,99805.66
2022-11-07T16:19:40.026Z,99802.16
2022-11-07T16:22:09.709Z,99812.06
2022-11-07T16:24:36.654Z,99807.53
2022-11-07T16:27:04.601Z,99804.25
2022-11-07T16:29:32.260Z,99805.28
2022-11-07T16:31:59.183Z,99806.28
2022-11-07T16:34:26.117Z,99813.75
2022-11-07T16:36:53.043Z,99817.25
2022-11-07T16:39:22.614Z,99817.47
2022-11-07T16:41:53.089Z,99814.19
2022-11-07T16:44:26.050Z,99813.38
2022-11-07T16:46:56.280Z,99815.22
2022-11-07T16:49:32.386Z,99817.06
2022-11-07T16:51:59.673Z,99817.28
2022-11-07T16:54:26.803Z,99813.78
2022-11-07T16:56:53.991Z,99814.59
2022-11-07T16:59:23.827Z,99818.31
2022-11-07T17:01:52.120Z,99808.63
2022-11-07T17:04:19.309Z,99811.31
2022-11-07T17:06:47.595Z,99814.00
2022-11-07T17:09:16.747Z,99817.72
2022-11-07T17:11:44.345Z,99812.34
2022-11-07T17:14:11.401Z,99813.41
2022-11-07T17:16:40.101Z,99817.09
2022-11-07T17:19:07.183Z,99821.63
2022-11-07T17:21:39.272Z,99821.63
2022-11-07T17:24:07.292Z,99819.16
2022-11-07T17:26:37.585Z,99823.72
2022-11-07T17:29:13.105Z,99823.94
2022-11-07T17:31:41.885Z,99816.09
2022-11-07T17:34:09.693Z,99821.66
2022-11-07T17:36:46.139Z,99823.75
2022-11-07T17:39:21.279Z,99824.78
2022-11-07T17:41:50.436Z,99824.19
2022-11-07T17:44:18.590Z,99827.88
2022-11-07T17:46:49.453Z,99829.53
2022-11-07T17:49:18.549Z,99831.59
2022-11-07T17:51:45.913Z,99828.31
2022-11-07T17:54:15.705Z,99827.25
2022-11-07T17:56:45.625Z,99822.94
2022-11-07T17:59:16.529Z,99828.31
2022-11-07T18:01:44.329Z,99823.38
2022-11-07T18:04:13.587Z,99824.19
2022-11-07T18:06:42.808Z,99825.03
2022-11-07T18:09:15.321Z,99825.84
2022-11-07T18:11:43.465Z,99820.47
2022-11-07T18:14:12.543Z,99810.56
2022-11-07T18:16:39.782Z,99817.78
2022-11-07T18:19:10.154Z,99816.97
2022-11-07T18:21:37.139Z,99815.94
2022-11-07T18:24:04.463Z,99816.97
2022-11-07T18:26:33.102Z,99818.41
2022-11-07T18:29:07.017Z,99811.41
2022-11-07T18:31:34.679Z,99816.53
2022-11-07T18:34:05.493Z,99818.19
2022-11-07T18:36:37.734Z,99818.19
2022-11-07T18:39:26.961Z,99824.38
2022-11-07T18:41:54.145Z,99822.50
2022-11-07T18:44:21.269Z,99815.50
2022-11-07T18:46:48.628Z,99811.78
2022-11-07T18:49:16.183Z,99816.31
2022-11-07T18:51:43.910Z,99811.78
2022-11-07T18:54:13.564Z,99811.78
2022-11-07T18:56:41.974Z,99809.09
2022-11-07T18:59:10.310Z,99797.34
2022-11-07T19:01:37.906Z,99804.38
2022-11-07T19:04:06.665Z,99801.69
2022-11-07T19:06:34.239Z,99799.00
2022-11-07T19:09:01.925Z,99791.78
2022-11-07T19:11:30.832Z,99797.75
2022-11-07T19:14:02.043Z,99798.56
2022-11-07T19:16:29.818Z,99805.56
2022-11-07T19:18:59.788Z,99802.88
2022-11-07T19:21:27.203Z,99798.56
2022-11-07T19:23:54.387Z,99796.69
2022-11-07T19:26:21.864Z,99801.25
2022-11-07T19:28:49.246Z,99802.28
2022-11-07T19:31:17.178Z,99800.63
2022-11-07T19:33:44.740Z,99797.13
2022-11-07T19:36:18.540Z,99797.34
2022-11-07T19:38:46.234Z,99798.19
2022-11-07T19:41:15.602Z,99803.72
2022-11-07T19:43:48.230Z,99804.78
2022-11-07T19:46:21.957Z,99806.25
2022-11-07T19:48:50.297Z,99803.56
2022-11-07T19:51:22.733Z,99796.56
2022-11-07T19:53:55.274Z,99799.66
2022-11-07T19:56:24.175Z,99782.94
2022-11-07T19:58:51.551Z,99780.47
2022-11-07T20:01:24.236Z,99788.69
2022-11-07T20:03:53.440Z,99799.41
2022-11-07T20:06:25.316Z,99796.13
2022-11-07T20:08:52.669Z,99800.91
2022-11-07T20:11:24.329Z,99794.91
2022-11-07T20:13:52.850Z,99804.19
2022-11-07T20:16:19.912Z,99808.13
2022-11-07T20:18:47.098Z,99817.41
2022-11-07T20:21:18.057Z,99820.31
2022-11-07T20:23:46.697Z,99826.72
2022-11-07T20:26:18.115Z,99817.84
2022-11-07T20:28:47.492Z,99816.19
2022-11-07T20:31:18.290Z,99817.25
2022-11-07T20:33:45.458Z,99812.88
2022-11-07T20:36:15.141Z,99817.44
2022-11-07T20:38:43.831Z,99822.19
2022-11-07T20:41:12.668Z,99820.31
2022-11-07T20:43:40.406Z,99824.25
2022-11-07T20:46:14.859Z,99820.75
2022-11-07T20:48:43.037Z,99826.31
2022-11-07T20:51:19.957Z,99822.19
2022-11-07T20:53:50.452Z,99828.38
2022-11-07T20:56:20.283Z,99818.09
2022-11-07T20:58:48.135Z,99822.63
2022-11-07T21:01:19.764Z,99823.84
2022-11-07T21:03:48.657Z,99826.75
2022-11-07T21:06:17.039Z,99831.28
2022-11-07T21:08:48.062Z,99840.34
2022-11-07T21:11:15.824Z,99837.03
2022-11-07T21:13:48.055Z,99833.34
2022-11-07T21:16:22.139Z,99836.03
2022-11-07T21:18:50.983Z,99837.03
2022-11-07T21:21:25.192Z,99832.50
2022-11-07T21:23:52.935Z,99828.00
2022-11-07T21:26:28.499Z,99822.00
2022-11-07T21:28:56.802Z,99825.72
2022-11-07T21:31:28.384Z,99826.75
2022-11-07T21:33:56.390Z,99820.56
2022-11-07T21:36:29.691Z,99822.84
2022-11-07T21:38:59.371Z,99820.38
2022-11-07T21:41:27.809Z,99819.75
2022-11-07T21:43:54.769Z,99821.63
2022-11-07T21:46:28.569Z,99811.94
2022-11-07T21:48:57.009Z,99812.75
2022-11-07T21:51:29.929Z,99813.97
2022-11-07T21:53:58.628Z,99813.97
2022-11-07T21:56:32.162Z,99806.97
2022-11-07T21:59:11.163Z,99795.88
2022-11-07T22:01:39.341Z,99795.03
2022-11-07T22:04:12.094Z,99792.78
2022-11-07T22:06:43.025Z,99795.06
2022-11-07T22:09:14.878Z,99783.09
2022-11-07T22:11:42.091Z,99782.69
2022-11-07T22:14:14.841Z,99773.22
2022-11-07T22:16:42.344Z,99773.44
2022-11-07T22:19:12.522Z,99774.66
2022-11-07T22:21:40.880Z,99770.53
2022-11-07T22:24:08.587Z,99771.78
2022-11-07T22:26:35.495Z,99766.00
2022-11-07T22:29:02.578Z,99761.69
2022-11-07T22:31:31.141Z,99756.53
2022-11-07T22:34:00.171Z,99760.44
2022-11-07T22:36:28.581Z,99759.84
2022-11-07T22:38:57.562Z,99767.25
2022-11-07T22:41:26.892Z,99760.25
2022-11-07T22:43:54.310Z,99751.19
2022-11-07T22:46:25.900Z,99756.53
2022-11-07T22:48:54.135Z,99746.88
2022-11-07T22:51:32.269Z,99744.81
2022-11-07T22:54:05.338Z,99741.91
2022-11-07T22:56:35.088Z,99749.53
2022-11-07T22:59:03.833Z,99748.50
2022-11-07T23:01:37.713Z,99751.38
2022-11-07T23:04:05.873Z,99744.38
2022-11-07T23:06:33.397Z,99737.81
2022-11-07T23:09:00.906Z,99737.16
2022-11-07T23:11:49.824Z,99730.38
2022-11-07T23:14:20.982Z,99738.19
2022-11-07T23:16:51.360Z,99733.66
2022-11-07T23:19:22.562Z,99732.03
2022-11-07T23:21:51.239Z,99731.22
2022-11-07T23:24:18.767Z,99727.09
2022-11-07T23:26:45.692Z,99725.84
2022-11-07T23:29:16.183Z,99729.97
2022-11-07T23:31:47.210Z,99740.28
2022-11-07T23:34:14.823Z,99736.56
2022-11-07T23:36:43.960Z,99727.09
2022-11-07T23:39:20.569Z,99740.88
2022-11-07T23:41:47.645Z,99729.97
2022-11-07T23:44:15.368Z,99729.53
2022-11-07T23:47:01.970Z,99723.75
2022-11-07T23:49:47.935Z,99714.50
2022-11-07T23:52:15.194Z,99712.44
2022-11-07T23:55:00.670Z,99722.31
2022-11-07T23:57:27.833Z,99713.47
